Airfield :
LOGIN :

Register | Disclaimer

   EN    FR    IT 

 










Legend :    VFR   Marginal VFR   IFR   Intensive IFR   Very Intensive IFR
Visi :
Ceiling :
>= 8 km
>= 3000ft
5 to 8 km
1000 to 3000 ft
1500m to 5 km
500 to 1000 ft
800 to 1500m
200 to 500 ft
< 800m
< 200 ft
Symbols :   Thunderstorms  Fog  Heavy snow  Heavy precipitations  Wind > 20 kt
SIGMETs :     Misc.  Thunderstorms  Icing  Turbulence  Mountain Waves  Volcanic Ashes






- Airport Elevation : 112 ft
- IATA code : KIR


EIKY - Kerry Farranfore

CURRENT METAR :
  • 011800Z 33009KT 290V350 9999 SCT029 SCT048 09/04 Q1026

EXPIRED METARs :
  • 011730Z 32005KT 9999 SCT024 BKN049 09/04 Q1026
  • 011700Z 32010KT 280V350 9999 FEW030 SCT034 BKN040 10/04 Q1026
  • 011630Z 33008KT 300V360 9999 SCT030 BKN035 10/04 Q1026
  • 011600Z 35009KT 320V020 9999 FEW024 SCT040 10/04 Q1026
  • 011530Z 34011KT 310V010 9999 BKN025 BKN029 09/05 Q1027

TAF TAF EIKY
Valid from the 01 at 18:00 until the 02 at 03:00 UTC


011700Z 0118/0203 33011KT 9999 SCT020 BKN040
BECMG 0121/0123 30006KT



MET'MAP, your aeronautical weather chart ! - Copyright ORBIFLY December 2007 - Disclaimer

ORBIFLY MET'MAP TEAM :

Programming & Development : Alexandra Zaïnal
Concept & original design : Baudouin d'Aumeries
Assistance for programming : Marc-Olivier Méhu
Technical & hardware support : Manuel Goepfert

Contact : metmap@orbifly.com




SOURCES & CREDITS :

   NOAA